createdAt,value
2023-05-09T00:02:15.246Z,99459.91
2023-05-09T00:04:48.707Z,99465.53
2023-05-09T00:07:21.872Z,99456.75
2023-05-09T00:09:54.763Z,99450.25
2023-05-09T00:12:29.895Z,99452.94
2023-05-09T00:15:02.645Z,99450.81
2023-05-09T00:17:36.450Z,99450.25
2023-05-09T00:20:12.441Z,99440.47
2023-05-09T00:22:45.435Z,99446.66
2023-05-09T00:25:18.282Z,99438.06
2023-05-09T00:27:52.760Z,99433.69
2023-05-09T00:30:25.798Z,99430.81
2023-05-09T00:32:58.754Z,99425.78
2023-05-09T00:35:32.389Z,99427.31
2023-05-09T00:38:05.532Z,99426.06
2023-05-09T00:40:38.501Z,99428.34
2023-05-09T00:43:13.116Z,99419.19
2023-05-09T00:45:46.488Z,99415.69
2023-05-09T00:48:20.562Z,99418.50
2023-05-09T00:50:53.844Z,99407.25
2023-05-09T00:53:27.897Z,99412.81
2023-05-09T00:56:01.843Z,99413.69
2023-05-09T00:58:36.106Z,99404.59
2023-05-09T01:01:09.288Z,99405.13
2023-05-09T01:03:43.188Z,99406.00
2023-05-09T01:06:24.226Z,99396.53
2023-05-09T01:09:03.039Z,99395.06
2023-05-09T01:11:41.310Z,99393.69
2023-05-09T01:14:25.810Z,99394.81
2023-05-09T01:17:10.067Z,99387.31
2023-05-09T01:19:58.379Z,99394.06
2023-05-09T01:22:34.934Z,99391.69
2023-05-09T01:25:37.700Z,99389.22
2023-05-09T01:28:36.419Z,99395.28
2023-05-09T01:31:11.376Z,99390.69
2023-05-09T01:33:47.878Z,99390.34
2023-05-09T01:36:22.669Z,99393.44
2023-05-09T01:38:57.458Z,99391.34
2023-05-09T01:41:33.301Z,99389.75
2023-05-09T01:44:09.627Z,99396.41
2023-05-09T01:46:46.001Z,99385.09
2023-05-09T01:49:21.286Z,99388.25
2023-05-09T01:51:56.458Z,99380.75
2023-05-09T01:54:30.735Z,99385.47
2023-05-09T01:57:05.476Z,99384.59
2023-05-09T01:59:42.614Z,99383.22
2023-05-09T02:02:18.316Z,99377.06
2023-05-09T02:04:51.737Z,99378.88
2023-05-09T02:07:26.039Z,99383.41
2023-05-09T02:10:04.073Z,99371.00
2023-05-09T02:12:37.297Z,99370.88
2023-05-09T02:15:11.315Z,99365.41
2023-05-09T02:17:48.444Z,99370.44
2023-05-09T02:20:21.645Z,99367.28
2023-05-09T02:22:54.645Z,99378.03
2023-05-09T02:25:27.623Z,99372.25
2023-05-09T02:28:01.281Z,99369.28
2023-05-09T02:30:40.188Z,99367.19
2023-05-09T02:33:15.639Z,99375.28
2023-05-09T02:35:49.170Z,99365.00
2023-05-09T02:38:22.208Z,99373.97
2023-05-09T02:40:55.294Z,99360.03
2023-05-09T02:43:28.290Z,99359.56
2023-05-09T02:46:01.487Z,99362.44
2023-05-09T02:48:35.899Z,99365.25
2023-05-09T02:51:09.023Z,99360.09
2023-05-09T02:53:42.085Z,99358.16
2023-05-09T02:56:15.235Z,99350.91
2023-05-09T02:58:51.418Z,99353.00
2023-05-09T03:01:25.355Z,99354.44
2023-05-09T03:04:00.257Z,99361.03
2023-05-09T03:06:33.985Z,99346.13
2023-05-09T03:09:07.273Z,99344.94
2023-05-09T03:11:41.102Z,99348.44
2023-05-09T03:14:15.721Z,99343.09
2023-05-09T03:16:49.031Z,99339.53
2023-05-09T03:19:31.924Z,99333.16
2023-05-09T03:22:05.220Z,99328.44
2023-05-09T03:24:42.518Z,99332.94
2023-05-09T03:27:15.904Z,99326.19
2023-05-09T03:29:51.856Z,99327.84
2023-05-09T03:32:26.806Z,99326.09
2023-05-09T03:35:01.191Z,99327.28
2023-05-09T03:37:34.361Z,99325.53
2023-05-09T03:40:09.358Z,99334.19
2023-05-09T03:42:50.105Z,99326.94
2023-05-09T03:45:23.403Z,99330.44
2023-05-09T03:47:57.344Z,99329.69
2023-05-09T03:50:32.139Z,99321.09
2023-05-09T03:53:05.815Z,99330.03
2023-05-09T03:55:42.386Z,99333.69
2023-05-09T03:58:19.440Z,99324.06
2023-05-09T04:00:53.752Z,99332.16
2023-05-09T04:03:29.869Z,99323.47
2023-05-09T04:06:04.935Z,99314.78
2023-05-09T04:08:44.122Z,99314.00
2023-05-09T04:11:17.210Z,99308.59
2023-05-09T04:13:53.613Z,99317.00
2023-05-09T04:16:34.495Z,99329.06
2023-05-09T04:19:07.772Z,99322.34
2023-05-09T04:21:43.047Z,99327.06
2023-05-09T04:24:16.003Z,99322.94
2023-05-09T04:26:51.716Z,99316.81
2023-05-09T04:29:27.938Z,99310.41
2023-05-09T04:32:02.277Z,99310.88
2023-05-09T04:34:35.607Z,99305.19
2023-05-09T04:37:16.214Z,99307.53
2023-05-09T04:39:49.608Z,99315.75
2023-05-09T04:42:28.636Z,99313.34
2023-05-09T04:45:03.858Z,99314.13
2023-05-09T04:47:36.839Z,99317.66
2023-05-09T04:50:10.959Z,99315.31
2023-05-09T04:52:45.280Z,99313.09
2023-05-09T04:55:18.682Z,99317.16
2023-05-09T04:57:54.232Z,99322.59
2023-05-09T05:00:27.734Z,99331.81
2023-05-09T05:03:01.381Z,99334.00
2023-05-09T05:05:37.503Z,99341.06
2023-05-09T05:08:13.316Z,99337.28
2023-05-09T05:10:49.061Z,99333.34
2023-05-09T05:13:24.390Z,99330.44
2023-05-09T05:16:02.160Z,99328.03
2023-05-09T05:18:35.591Z,99326.22
2023-05-09T05:21:09.133Z,99322.19
2023-05-09T05:23:44.308Z,99332.16
2023-05-09T05:26:17.358Z,99329.72
2023-05-09T05:28:55.426Z,99327.50
2023-05-09T05:31:28.684Z,99326.69
2023-05-09T05:34:01.598Z,99326.78
2023-05-09T05:36:37.037Z,99321.06
2023-05-09T05:39:12.446Z,99320.31
2023-05-09T05:41:45.555Z,99331.69
2023-05-09T05:44:18.536Z,99321.75
2023-05-09T05:46:52.055Z,99324.00
2023-05-09T05:49:26.063Z,99316.56
2023-05-09T05:51:59.003Z,99323.09
2023-05-09T05:54:34.066Z,99318.50
2023-05-09T05:57:08.219Z,99318.91
2023-05-09T05:59:41.977Z,99321.13
2023-05-09T06:02:15.847Z,99321.19
2023-05-09T06:04:49.164Z,99316.28
2023-05-09T06:07:22.350Z,99308.56
2023-05-09T06:09:56.620Z,99307.69
2023-05-09T06:12:29.541Z,99307.84
2023-05-09T06:15:05.001Z,99302.06
2023-05-09T06:17:41.449Z,99300.16
2023-05-09T06:20:14.280Z,99303.63
2023-05-09T06:22:47.235Z,99302.09
2023-05-09T06:25:22.167Z,99302.88
2023-05-09T06:27:55.196Z,99315.63
2023-05-09T06:30:28.122Z,99312.13
2023-05-09T06:33:01.139Z,99321.13
2023-05-09T06:35:34.217Z,99312.28
2023-05-09T06:38:07.124Z,99318.50
2023-05-09T06:40:41.919Z,99302.47
2023-05-09T06:43:14.965Z,99311.66
2023-05-09T06:45:47.894Z,99304.13
2023-05-09T06:48:20.819Z,99310.31
2023-05-09T06:50:53.730Z,99308.28
2023-05-09T06:53:26.559Z,99305.13
2023-05-09T06:56:00.861Z,99299.69
2023-05-09T06:58:33.805Z,99291.34
2023-05-09T07:01:06.768Z,99294.09
2023-05-09T07:03:39.594Z,99293.56
2023-05-09T07:06:12.419Z,99288.09
2023-05-09T07:08:45.984Z,99279.91
2023-05-09T07:11:21.389Z,99292.19
2023-05-09T07:13:54.378Z,99279.81
2023-05-09T07:16:29.667Z,99275.06
2023-05-09T07:19:02.723Z,99269.88
2023-05-09T07:21:35.626Z,99264.34
2023-05-09T07:24:08.699Z,99263.97
2023-05-09T07:26:42.897Z,99248.16
2023-05-09T07:29:15.813Z,99253.47
2023-05-09T07:31:48.702Z,99243.88
2023-05-09T07:34:21.636Z,99245.34
2023-05-09T07:37:16.352Z,99241.25
2023-05-09T07:40:15.616Z,99237.03
2023-05-09T07:42:51.625Z,99238.56
2023-05-09T07:45:24.510Z,99217.16
2023-05-09T07:47:57.360Z,99217.75
2023-05-09T07:50:30.368Z,99224.28
2023-05-09T07:53:03.337Z,99220.13
2023-05-09T07:55:36.452Z,99217.59
2023-05-09T07:58:10.696Z,99220.34
2023-05-09T08:00:43.782Z,99217.44
2023-05-09T08:03:16.829Z,99219.88
2023-05-09T08:05:49.933Z,99213.69
2023-05-09T08:08:22.923Z,99212.72
2023-05-09T08:10:56.327Z,99202.97
2023-05-09T08:13:30.593Z,99200.53
2023-05-09T08:16:03.842Z,99196.75
2023-05-09T08:18:36.802Z,99195.94
2023-05-09T08:21:09.799Z,99197.22
2023-05-09T08:23:42.835Z,99202.00
2023-05-09T08:26:16.018Z,99193.75
2023-05-09T08:28:50.445Z,99188.09
2023-05-09T08:31:23.378Z,99188.47
2023-05-09T08:33:56.279Z,99175.91
2023-05-09T08:36:29.097Z,99183.41
2023-05-09T08:39:02.280Z,99169.63
2023-05-09T08:41:36.151Z,99184.63
2023-05-09T08:44:10.984Z,99163.00
2023-05-09T08:46:45.732Z,99167.31
2023-05-09T08:49:18.990Z,99169.06
2023-05-09T08:51:52.444Z,99153.47
2023-05-09T08:54:26.012Z,99154.41
2023-05-09T08:56:59.115Z,99166.34
2023-05-09T08:59:36.892Z,99154.84
2023-05-09T09:02:14.568Z,99152.75
2023-05-09T09:04:47.996Z,99152.75
2023-05-09T09:07:21.695Z,99153.47
2023-05-09T09:09:56.750Z,99144.50
2023-05-09T09:12:29.981Z,99140.00
2023-05-09T09:15:06.144Z,99137.66
2023-05-09T09:17:43.479Z,99126.00
2023-05-09T09:20:19.386Z,99124.63
2023-05-09T09:22:56.358Z,99112.97
2023-05-09T09:25:29.187Z,99107.00
2023-05-09T09:28:02.237Z,99091.22
2023-05-09T09:30:36.731Z,99100.28
2023-05-09T09:33:09.749Z,99088.56
2023-05-09T09:35:43.498Z,99081.63
2023-05-09T09:38:16.452Z,99087.72
2023-05-09T09:40:56.159Z,99094.69
2023-05-09T09:43:30.281Z,99087.63
2023-05-09T09:46:05.539Z,99069.88
2023-05-09T09:48:39.678Z,99063.78
2023-05-09T09:51:12.746Z,99067.16
2023-05-09T09:53:46.866Z,99056.97
2023-05-09T09:56:21.711Z,99062.16
2023-05-09T09:59:09.666Z,99061.09
2023-05-09T10:01:56.900Z,99063.31
2023-05-09T10:04:31.916Z,99055.25
2023-05-09T10:07:06.386Z,99051.72
2023-05-09T10:09:39.241Z,99037.69
2023-05-09T10:12:14.927Z,99029.97
2023-05-09T10:14:49.768Z,99021.56
2023-05-09T10:17:26.134Z,99020.47
2023-05-09T10:20:03.836Z,99014.72
2023-05-09T10:22:40.427Z,99014.50
2023-05-09T10:25:18.622Z,99013.66
2023-05-09T10:27:57.281Z,98995.53
2023-05-09T10:30:34.246Z,98997.44
2023-05-09T10:33:11.568Z,98991.09
2023-05-09T10:35:48.030Z,98986.28
2023-05-09T10:38:21.269Z,98982.66
2023-05-09T10:40:56.076Z,98985.00
2023-05-09T10:43:31.179Z,98980.88
2023-05-09T10:46:06.455Z,98972.59
2023-05-09T10:48:42.369Z,98963.25
2023-05-09T10:51:15.249Z,98953.69
2023-05-09T10:53:50.189Z,98957.03
2023-05-09T10:56:27.500Z,98949.00
2023-05-09T10:59:00.666Z,98938.66
2023-05-09T11:01:37.423Z,98942.50
2023-05-09T11:04:14.554Z,98935.78
2023-05-09T11:06:51.004Z,98925.94
2023-05-09T11:09:27.169Z,98921.81
2023-05-09T11:12:08.179Z,98905.44
2023-05-09T11:14:43.473Z,98908.59
2023-05-09T11:17:29.699Z,98902.09
2023-05-09T11:20:07.006Z,98903.97
2023-05-09T11:22:42.036Z,98902.34
2023-05-09T11:25:17.102Z,98903.69
2023-05-09T11:27:52.118Z,98896.50
2023-05-09T11:30:37.638Z,98883.41
2023-05-09T11:33:24.009Z,98878.88
2023-05-09T11:36:20.836Z,98871.47
2023-05-09T11:39:06.277Z,98879.03
2023-05-09T11:41:44.361Z,98876.53
2023-05-09T11:44:18.596Z,98870.97
2023-05-09T11:46:51.441Z,98868.78
2023-05-09T11:49:24.695Z,98859.31
2023-05-09T11:52:02.182Z,98864.34
2023-05-09T11:54:38.475Z,98854.41
2023-05-09T11:57:11.410Z,98844.81
2023-05-09T11:59:45.440Z,98833.50
2023-05-09T12:02:18.411Z,98832.41
2023-05-09T12:04:51.705Z,98840.47
2023-05-09T12:07:26.353Z,98829.34
2023-05-09T12:09:59.201Z,98822.97
2023-05-09T12:12:35.392Z,98817.53
2023-05-09T12:15:10.223Z,98817.09
2023-05-09T12:17:44.435Z,98805.53
2023-05-09T12:20:17.238Z,98805.25
2023-05-09T12:22:55.910Z,98804.03
2023-05-09T12:25:28.927Z,98786.34
2023-05-09T12:28:01.757Z,98792.75
2023-05-09T12:30:34.988Z,98787.34
2023-05-09T12:33:10.544Z,98789.91
2023-05-09T12:35:47.217Z,98783.16
2023-05-09T12:38:23.571Z,98777.81
2023-05-09T12:41:03.650Z,98774.59
2023-05-09T12:43:39.566Z,98775.00
2023-05-09T12:46:12.421Z,98767.31
2023-05-09T12:48:45.994Z,98760.53
2023-05-09T12:51:20.346Z,98768.09
2023-05-09T12:53:54.489Z,98749.56
2023-05-09T12:56:27.286Z,98755.75
2023-05-09T12:59:00.103Z,98756.13
2023-05-09T13:01:33.235Z,98747.78
2023-05-09T13:04:08.538Z,98743.66
2023-05-09T13:06:49.381Z,98740.06
2023-05-09T13:09:24.432Z,98732.22
2023-05-09T13:11:57.221Z,98725.84
2023-05-09T13:14:30.507Z,98725.50
2023-05-09T13:17:03.346Z,98725.59
2023-05-09T13:19:39.496Z,98716.69
2023-05-09T13:22:12.560Z,98711.88
2023-05-09T13:24:46.972Z,98712.31
2023-05-09T13:27:19.721Z,98701.97
2023-05-09T13:29:52.657Z,98699.50
2023-05-09T13:32:26.154Z,98689.44
2023-05-09T13:34:59.069Z,98687.53
2023-05-09T13:37:32.238Z,98686.88
2023-05-09T13:40:07.984Z,98682.13
2023-05-09T13:42:40.937Z,98680.75
2023-05-09T13:45:14.001Z,98672.91
2023-05-09T13:47:47.070Z,98660.97
2023-05-09T13:50:19.985Z,98651.41
2023-05-09T13:52:52.874Z,98654.50
2023-05-09T13:55:27.809Z,98637.94
2023-05-09T13:58:00.751Z,98637.75
2023-05-09T14:00:34.322Z,98637.03
2023-05-09T14:03:07.506Z,98631.13
2023-05-09T14:05:40.483Z,98636.22
2023-05-09T14:08:13.774Z,98627.38
2023-05-09T14:10:48.166Z,98631.59
2023-05-09T14:13:21.237Z,98621.06
2023-05-09T14:15:54.097Z,98617.91
2023-05-09T14:18:26.895Z,98611.66
2023-05-09T14:20:59.747Z,98608.19
2023-05-09T14:23:32.510Z,98604.16
2023-05-09T14:26:06.884Z,98592.63
2023-05-09T14:28:40.085Z,98592.44
2023-05-09T14:31:13.411Z,98588.63
2023-05-09T14:33:46.580Z,98586.50
2023-05-09T14:36:19.423Z,98588.28
2023-05-09T14:38:52.195Z,98585.47
2023-05-09T14:41:26.862Z,98588.63
2023-05-09T14:43:59.706Z,98580.78
2023-05-09T14:46:32.684Z,98573.38
2023-05-09T14:49:05.570Z,98559.72
2023-05-09T14:51:38.439Z,98562.59
2023-05-09T14:54:11.320Z,98553.09
2023-05-09T14:56:45.442Z,98552.94
2023-05-09T14:59:18.470Z,98555.63
2023-05-09T15:01:52.329Z,98545.69
2023-05-09T15:04:28.276Z,98542.41
2023-05-09T15:07:01.171Z,98540.41
2023-05-09T15:09:33.950Z,98522.72
2023-05-09T15:12:08.394Z,98525.22
2023-05-09T15:14:41.570Z,98523.53
2023-05-09T15:17:14.495Z,98522.34
2023-05-09T15:19:47.419Z,98531.50
2023-05-09T15:22:20.174Z,98516.44
2023-05-09T15:24:52.861Z,98512.44
2023-05-09T15:27:27.686Z,98509.25
2023-05-09T15:30:00.726Z,98507.25
2023-05-09T15:32:34.638Z,98501.00
2023-05-09T15:35:08.378Z,98500.63
2023-05-09T15:37:41.712Z,98497.97
2023-05-09T15:40:14.957Z,98491.44
2023-05-09T15:42:50.950Z,98483.31
2023-05-09T15:45:24.085Z,98486.91
2023-05-09T15:47:57.077Z,98477.75
2023-05-09T15:50:29.908Z,98472.75
2023-05-09T15:53:02.702Z,98466.81
2023-05-09T15:55:35.676Z,98466.59
2023-05-09T15:58:11.008Z,98468.38
2023-05-09T16:00:45.428Z,98458.91
2023-05-09T16:03:18.928Z,98459.41
2023-05-09T16:05:52.143Z,98448.00
2023-05-09T16:08:25.113Z,98444.88
2023-05-09T16:11:00.852Z,98444.38
2023-05-09T16:13:36.060Z,98437.50
2023-05-09T16:16:10.137Z,98434.59
2023-05-09T16:18:43.065Z,98435.03
2023-05-09T16:21:15.934Z,98428.69
2023-05-09T16:23:48.728Z,98422.00
2023-05-09T16:26:22.032Z,98423.31
2023-05-09T16:28:56.292Z,98412.56
2023-05-09T16:31:32.196Z,98418.34
2023-05-09T16:34:06.326Z,98415.09
2023-05-09T16:36:39.495Z,98409.03
2023-05-09T16:39:12.341Z,98411.56
2023-05-09T16:41:45.425Z,98399.00
2023-05-09T16:44:19.652Z,98394.59
2023-05-09T16:46:52.416Z,98396.50
2023-05-09T16:49:25.230Z,98390.59
2023-05-09T16:51:58.279Z,98390.09
2023-05-09T16:54:31.628Z,98378.53
2023-05-09T16:57:04.601Z,98379.47
2023-05-09T16:59:38.766Z,98370.09
2023-05-09T17:02:11.528Z,98370.59
2023-05-09T17:04:44.353Z,98364.94
2023-05-09T17:07:17.625Z,98370.94
2023-05-09T17:09:50.501Z,98366.63
2023-05-09T17:12:23.495Z,98362.38
2023-05-09T17:14:57.918Z,98357.94
2023-05-09T17:17:31.282Z,98363.25
2023-05-09T17:20:10.001Z,98361.06
2023-05-09T17:22:42.926Z,98355.22
2023-05-09T17:25:16.727Z,98350.19
2023-05-09T17:27:49.897Z,98346.31
2023-05-09T17:30:24.457Z,98348.66
2023-05-09T17:32:57.407Z,98349.00
2023-05-09T17:35:30.429Z,98352.00
2023-05-09T17:38:03.210Z,98347.66
2023-05-09T17:40:36.053Z,98348.53
2023-05-09T17:43:08.910Z,98342.63
2023-05-09T17:45:43.408Z,98338.44
2023-05-09T17:48:16.299Z,98336.59
2023-05-09T17:50:49.360Z,98333.28
2023-05-09T17:53:22.198Z,98336.38
2023-05-09T17:55:55.392Z,98335.66
2023-05-09T17:58:28.694Z,98340.56
2023-05-09T18:01:02.836Z,98337.75
2023-05-09T18:03:36.004Z,98343.13
2023-05-09T18:06:08.878Z,98339.03
2023-05-09T18:08:41.766Z,98332.84
2023-05-09T18:11:15.031Z,98336.44
2023-05-09T18:13:48.273Z,98337.19
2023-05-09T18:16:22.518Z,98338.50
2023-05-09T18:18:55.332Z,98331.81
2023-05-09T18:21:28.858Z,98330.53
2023-05-09T18:24:02.008Z,98329.22
2023-05-09T18:26:34.973Z,98326.94
2023-05-09T18:29:07.937Z,98331.22
2023-05-09T18:31:42.204Z,98335.06
2023-05-09T18:34:15.118Z,98328.28
2023-05-09T18:36:48.721Z,98325.50
2023-05-09T18:39:21.597Z,98329.06
2023-05-09T18:41:54.402Z,98335.75
2023-05-09T18:44:27.495Z,98334.66
2023-05-09T18:47:01.948Z,98333.88
2023-05-09T18:49:34.807Z,98337.75
2023-05-09T18:52:07.628Z,98336.19
2023-05-09T18:54:41.365Z,98326.72
2023-05-09T18:57:14.506Z,98336.00
2023-05-09T18:59:47.358Z,98331.88
2023-05-09T19:02:22.470Z,98338.13
2023-05-09T19:04:55.597Z,98340.50
2023-05-09T19:07:29.341Z,98334.06
2023-05-09T19:10:04.038Z,98338.13
2023-05-09T19:12:37.601Z,98339.03
2023-05-09T19:15:12.396Z,98342.03
2023-05-09T19:17:46.834Z,98344.34
2023-05-09T19:20:19.939Z,98355.09
2023-05-09T19:22:52.779Z,98349.03
2023-05-09T19:25:26.081Z,98348.06
2023-05-09T19:27:58.958Z,98352.84
2023-05-09T19:30:31.975Z,98350.41
2023-05-09T19:33:06.245Z,98356.19
2023-05-09T19:35:39.424Z,98356.94
2023-05-09T19:38:12.996Z,98356.31
2023-05-09T19:40:45.824Z,98353.09
2023-05-09T19:43:18.785Z,98365.97
2023-05-09T19:45:51.574Z,98365.59
2023-05-09T19:48:25.842Z,98368.63
2023-05-09T19:50:59.199Z,98374.41
2023-05-09T19:53:32.220Z,98377.94
2023-05-09T19:56:07.955Z,98375.53
2023-05-09T19:58:41.214Z,98379.66
2023-05-09T20:01:14.258Z,98385.06
2023-05-09T20:03:50.693Z,98390.19
2023-05-09T20:06:25.325Z,98390.47
2023-05-09T20:08:58.206Z,98398.53
2023-05-09T20:11:31.268Z,98401.06
2023-05-09T20:14:04.596Z,98407.44
2023-05-09T20:16:37.456Z,98418.88
2023-05-09T20:19:15.238Z,98418.09
2023-05-09T20:21:48.120Z,98426.66
2023-05-09T20:24:21.155Z,98418.66
2023-05-09T20:26:55.044Z,98435.59
2023-05-09T20:29:27.858Z,98437.06
2023-05-09T20:32:00.810Z,98433.84
2023-05-09T20:34:35.107Z,98430.78
2023-05-09T20:37:08.008Z,98437.34
2023-05-09T20:39:40.928Z,98433.13
2023-05-09T20:42:13.815Z,98439.66
2023-05-09T20:44:48.333Z,98433.63
2023-05-09T20:47:21.299Z,98439.59
2023-05-09T20:49:56.834Z,98433.97
2023-05-09T20:52:31.076Z,98437.66
2023-05-09T20:55:04.122Z,98436.97
2023-05-09T20:57:37.001Z,98438.41
2023-05-09T21:00:10.528Z,98427.41
2023-05-09T21:02:43.433Z,98433.72
2023-05-09T21:05:17.887Z,98419.94
2023-05-09T21:07:50.756Z,98423.53
2023-05-09T21:10:23.685Z,98423.31
2023-05-09T21:12:56.520Z,98428.38
2023-05-09T21:15:29.368Z,98417.66
2023-05-09T21:18:02.290Z,98414.53
2023-05-09T21:20:36.568Z,98418.94
2023-05-09T21:23:09.528Z,98416.81
2023-05-09T21:25:43.056Z,98408.75
2023-05-09T21:28:15.881Z,98404.97
2023-05-09T21:30:52.387Z,98409.50
2023-05-09T21:33:25.923Z,98410.22
2023-05-09T21:36:00.378Z,98409.81
2023-05-09T21:38:33.759Z,98401.16
2023-05-09T21:41:06.858Z,98406.50
2023-05-09T21:43:43.198Z,98406.13
2023-05-09T21:46:16.426Z,98394.97
2023-05-09T21:48:49.581Z,98402.31
2023-05-09T21:51:24.094Z,98396.66
2023-05-09T21:53:57.085Z,98398.34
2023-05-09T21:56:30.277Z,98387.47
2023-05-09T21:59:03.316Z,98390.19
2023-05-09T22:01:37.018Z,98380.75
2023-05-09T22:04:10.170Z,98378.91
2023-05-09T22:06:45.077Z,98382.50
2023-05-09T22:09:18.076Z,98374.63
2023-05-09T22:11:51.960Z,98379.47
2023-05-09T22:14:25.223Z,98369.88
2023-05-09T22:16:59.454Z,98377.94
2023-05-09T22:19:33.166Z,98372.72
2023-05-09T22:22:07.806Z,98364.31
2023-05-09T22:24:41.799Z,98365.06
2023-05-09T22:27:14.779Z,98359.09
2023-05-09T22:29:47.844Z,98351.78
2023-05-09T22:32:20.846Z,98358.88
2023-05-09T22:34:55.135Z,98350.66
2023-05-09T22:37:29.557Z,98349.22
2023-05-09T22:40:02.569Z,98337.97
2023-05-09T22:42:35.539Z,98329.94
2023-05-09T22:45:09.609Z,98322.00
2023-05-09T22:47:42.517Z,98314.16
2023-05-09T22:50:15.831Z,98318.25
2023-05-09T22:52:50.427Z,98327.81
2023-05-09T22:55:24.178Z,98330.66
2023-05-09T22:57:57.415Z,98325.97
2023-05-09T23:00:30.338Z,98327.06
2023-05-09T23:03:04.615Z,98328.75
2023-05-09T23:05:37.654Z,98331.81
2023-05-09T23:08:11.881Z,98338.03
2023-05-09T23:10:45.110Z,98332.38
2023-05-09T23:13:18.254Z,98330.03
2023-05-09T23:15:52.126Z,98327.59
2023-05-09T23:18:25.799Z,98328.78
2023-05-09T23:20:58.767Z,98324.50
2023-05-09T23:23:33.105Z,98321.91
2023-05-09T23:26:06.018Z,98320.34
2023-05-09T23:28:38.819Z,98312.28
2023-05-09T23:31:11.795Z,98312.53
2023-05-09T23:33:45.140Z,98298.59
2023-05-09T23:36:17.933Z,98305.97
2023-05-09T23:38:52.326Z,98308.63
2023-05-09T23:41:25.151Z,98301.38
2023-05-09T23:43:59.407Z,98296.66
2023-05-09T23:46:32.326Z,98297.28
2023-05-09T23:49:05.221Z,98289.09
2023-05-09T23:51:38.054Z,98295.69
2023-05-09T23:54:12.239Z,98302.25
2023-05-09T23:56:45.111Z,98299.53
2023-05-09T23:59:17.934Z,98296.66
